createdAt,value
2022-12-11T00:02:26.683Z,100777.78
2022-12-11T00:05:00.465Z,100773.59
2022-12-11T00:07:34.026Z,100778.69
2022-12-11T00:10:10.454Z,100771.19
2022-12-11T00:12:44.089Z,100767.63
2022-12-11T00:15:18.297Z,100768.63
2022-12-11T00:17:51.755Z,100774.00
2022-12-11T00:20:25.537Z,100769.97
2022-12-11T00:22:59.167Z,100760.66
2022-12-11T00:25:34.587Z,100762.72
2022-12-11T00:28:08.038Z,100769.97
2022-12-11T00:30:43.134Z,100768.00
2022-12-11T00:33:17.156Z,100778.38
2022-12-11T00:35:50.848Z,100772.69
2022-12-11T00:38:25.055Z,100773.84
2022-12-11T00:41:00.905Z,100776.56
2022-12-11T00:43:34.404Z,100767.00
2022-12-11T00:46:08.882Z,100765.13
2022-12-11T00:48:42.476Z,100764.88
2022-12-11T00:51:16.397Z,100769.16
2022-12-11T00:53:49.900Z,100770.44
2022-12-11T00:56:25.296Z,100768.38
2022-12-11T00:58:58.837Z,100763.69
2022-12-11T01:01:33.408Z,100762.84
2022-12-11T01:04:07.042Z,100765.66
2022-12-11T01:06:40.950Z,100764.59
2022-12-11T01:09:32.231Z,100769.69
2022-12-11T01:12:07.685Z,100764.75
2022-12-11T01:14:41.088Z,100761.28
2022-12-11T01:17:14.738Z,100759.81
2022-12-11T01:19:48.866Z,100764.88
2022-12-11T01:22:22.845Z,100765.59
2022-12-11T01:24:56.475Z,100766.72
2022-12-11T01:27:31.538Z,100769.88
2022-12-11T01:30:06.048Z,100766.72
2022-12-11T01:32:39.832Z,100770.34
2022-12-11T01:35:14.204Z,100765.16
2022-12-11T01:37:49.614Z,100768.69
2022-12-11T01:40:23.908Z,100777.25
2022-12-11T01:42:59.302Z,100776.03
2022-12-11T01:45:39.916Z,100779.66
2022-12-11T01:48:17.441Z,100782.22
2022-12-11T01:50:53.127Z,100785.50
2022-12-11T01:53:32.025Z,100784.03
2022-12-11T01:56:05.669Z,100779.59
2022-12-11T01:58:45.115Z,100774.91
2022-12-11T02:01:26.650Z,100769.13
2022-12-11T02:04:00.934Z,100774.22
2022-12-11T02:06:37.828Z,100774.66
2022-12-11T02:09:14.001Z,100773.44
2022-12-11T02:11:56.490Z,100762.94
2022-12-11T02:14:39.505Z,100773.75
2022-12-11T02:17:18.216Z,100770.88
2022-12-11T02:20:04.319Z,100767.50
2022-12-11T02:22:55.766Z,100775.72
2022-12-11T02:25:36.767Z,100769.38
2022-12-11T02:28:19.739Z,100765.03
2022-12-11T02:30:58.884Z,100770.47
2022-12-11T02:33:37.331Z,100769.50
2022-12-11T02:36:11.474Z,100770.72
2022-12-11T02:38:50.609Z,100757.88
2022-12-11T02:41:26.368Z,100764.63
2022-12-11T02:44:04.338Z,100768.25
2022-12-11T02:46:38.985Z,100765.13
2022-12-11T02:49:14.847Z,100759.69
2022-12-11T02:51:48.787Z,100754.28
2022-12-11T02:54:27.978Z,100747.69
2022-12-11T02:57:06.722Z,100742.41
2022-12-11T02:59:45.139Z,100756.81
2022-12-11T03:02:19.227Z,100752.63
2022-12-11T03:04:52.980Z,100755.34
2022-12-11T03:07:32.754Z,100758.78
2022-12-11T03:10:08.844Z,100759.69
2022-12-11T03:12:47.031Z,100760.19
2022-12-11T03:15:35.080Z,100758.31
2022-12-11T03:18:16.679Z,100751.44
2022-12-11T03:21:03.165Z,100753.59
2022-12-11T03:23:43.605Z,100759.59
2022-12-11T03:26:19.819Z,100752.78
2022-12-11T03:28:59.610Z,100754.41
2022-12-11T03:31:41.991Z,100760.59
2022-12-11T03:34:20.666Z,100757.31
2022-12-11T03:36:56.938Z,100754.81
2022-12-11T03:39:33.966Z,100755.75
2022-12-11T03:42:11.176Z,100753.91
2022-12-11T03:44:49.237Z,100747.75
2022-12-11T03:47:27.594Z,100751.19
2022-12-11T03:50:04.786Z,100750.72
2022-12-11T03:52:45.581Z,100745.03
2022-12-11T03:55:22.271Z,100755.81
2022-12-11T03:57:55.873Z,100753.25
2022-12-11T04:00:30.218Z,100742.31
2022-12-11T04:03:14.800Z,100743.91
2022-12-11T04:05:50.463Z,100741.88
2022-12-11T04:08:24.517Z,100747.00
2022-12-11T04:11:12.169Z,100747.56
2022-12-11T04:13:45.798Z,100734.66
2022-12-11T04:16:18.701Z,100747.41
2022-12-11T04:19:11.177Z,100744.59
2022-12-11T04:22:02.597Z,100741.56
2022-12-11T04:24:36.094Z,100731.34
2022-12-11T04:27:09.942Z,100734.59
2022-12-11T04:29:43.343Z,100728.22
2022-12-11T04:32:17.097Z,100725.28
2022-12-11T04:34:52.241Z,100735.72
2022-12-11T04:37:25.863Z,100735.41
2022-12-11T04:39:59.326Z,100734.06
2022-12-11T04:42:32.988Z,100731.03
2022-12-11T04:45:08.663Z,100738.06
2022-12-11T04:47:43.476Z,100740.09
2022-12-11T04:50:18.949Z,100744.06
2022-12-11T04:52:56.090Z,100734.41
2022-12-11T04:55:29.590Z,100737.22
2022-12-11T04:58:03.275Z,100730.63
2022-12-11T05:00:36.740Z,100735.41
2022-12-11T05:03:10.781Z,100733.91
2022-12-11T05:05:50.642Z,100733.50
2022-12-11T05:08:24.403Z,100726.56
2022-12-11T05:10:58.530Z,100726.41
2022-12-11T05:13:32.403Z,100733.50
2022-12-11T05:16:06.890Z,100733.44
2022-12-11T05:18:40.837Z,100727.91
2022-12-11T05:21:17.307Z,100742.63
2022-12-11T05:23:51.068Z,100725.94
2022-12-11T05:26:24.521Z,100735.88
2022-12-11T05:28:58.288Z,100739.84
2022-12-11T05:31:31.887Z,100737.03
2022-12-11T05:34:05.655Z,100733.16
2022-12-11T05:36:40.830Z,100730.72
2022-12-11T05:39:14.472Z,100722.00
2022-12-11T05:41:47.952Z,100729.22
2022-12-11T05:44:21.803Z,100720.09
2022-12-11T05:46:55.300Z,100727.16
2022-12-11T05:49:30.996Z,100733.16
2022-12-11T05:52:06.316Z,100727.31
2022-12-11T05:54:40.459Z,100728.22
2022-12-11T05:57:13.964Z,100725.19
2022-12-11T05:59:47.584Z,100717.22
2022-12-11T06:02:21.306Z,100728.59
2022-12-11T06:04:55.057Z,100727.03
2022-12-11T06:07:29.947Z,100718.69
2022-12-11T06:10:03.716Z,100720.59
2022-12-11T06:12:37.928Z,100721.75
2022-12-11T06:15:12.061Z,100726.09
2022-12-11T06:17:46.418Z,100723.56
2022-12-11T06:20:20.197Z,100735.72
2022-12-11T06:22:55.233Z,100730.72
2022-12-11T06:25:29.956Z,100730.53
2022-12-11T06:28:03.427Z,100730.34
2022-12-11T06:30:38.909Z,100729.28
2022-12-11T06:33:13.433Z,100725.50
2022-12-11T06:35:47.110Z,100723.13
2022-12-11T06:38:21.887Z,100728.78
2022-12-11T06:40:57.150Z,100727.88
2022-12-11T06:43:30.712Z,100731.91
2022-12-11T06:46:05.406Z,100727.56
2022-12-11T06:48:39.808Z,100727.97
2022-12-11T06:51:18.398Z,100731.25
2022-12-11T06:53:54.887Z,100728.53
2022-12-11T06:56:28.535Z,100725.84
2022-12-11T06:59:07.154Z,100739.13
2022-12-11T07:01:41.874Z,100734.03
2022-12-11T07:04:15.379Z,100729.16
2022-12-11T07:06:49.202Z,100733.03
2022-12-11T07:09:24.286Z,100731.06
2022-12-11T07:11:58.183Z,100743.63
2022-12-11T07:14:31.664Z,100738.19
2022-12-11T07:17:05.463Z,100743.13
2022-12-11T07:19:38.890Z,100742.97
2022-12-11T07:22:12.579Z,100754.81
2022-12-11T07:24:47.456Z,100754.59
2022-12-11T07:27:21.241Z,100754.44
2022-12-11T07:29:55.481Z,100755.00
2022-12-11T07:32:29.767Z,100768.66
2022-12-11T07:35:03.410Z,100771.19
2022-12-11T07:37:38.122Z,100775.22
2022-12-11T07:40:13.908Z,100781.41
2022-12-11T07:42:48.118Z,100773.19
2022-12-11T07:45:21.725Z,100775.56
2022-12-11T07:47:55.463Z,100774.66
2022-12-11T07:50:29.003Z,100782.59
2022-12-11T07:53:02.903Z,100783.59
2022-12-11T07:55:37.834Z,100780.88
2022-12-11T07:58:11.580Z,100781.13
2022-12-11T08:00:45.461Z,100777.50
2022-12-11T08:03:19.167Z,100775.00
2022-12-11T08:05:53.710Z,100776.13
2022-12-11T08:08:27.504Z,100777.03
2022-12-11T08:11:03.457Z,100767.75
2022-12-11T08:13:37.256Z,100763.78
2022-12-11T08:16:13.066Z,100767.16
2022-12-11T08:18:48.323Z,100767.47
2022-12-11T08:21:24.450Z,100770.94
2022-12-11T08:23:58.196Z,100770.34
2022-12-11T08:26:33.169Z,100772.34
2022-12-11T08:29:06.994Z,100769.06
2022-12-11T08:31:40.707Z,100771.78
2022-12-11T08:34:14.634Z,100771.03
2022-12-11T08:36:48.323Z,100774.50
2022-12-11T08:39:22.237Z,100773.25
2022-12-11T08:41:57.462Z,100777.53
2022-12-11T08:44:31.426Z,100766.84
2022-12-11T08:47:05.333Z,100769.91
2022-12-11T08:49:39.115Z,100765.94
2022-12-11T08:52:12.856Z,100760.44
2022-12-11T08:54:46.515Z,100760.81
2022-12-11T08:57:21.368Z,100756.25
2022-12-11T08:59:55.052Z,100752.63
2022-12-11T09:02:28.643Z,100756.25
2022-12-11T09:05:02.561Z,100747.66
2022-12-11T09:07:36.928Z,100752.75
2022-12-11T09:10:11.479Z,100735.56
2022-12-11T09:12:46.752Z,100742.31
2022-12-11T09:15:20.730Z,100738.78
2022-12-11T09:17:54.261Z,100734.03
2022-12-11T09:20:28.008Z,100737.44
2022-12-11T09:23:02.461Z,100736.69
2022-12-11T09:25:36.142Z,100739.25
2022-12-11T09:28:11.037Z,100739.31
2022-12-11T09:30:44.761Z,100740.19
2022-12-11T09:33:18.334Z,100732.34
2022-12-11T09:35:58.575Z,100730.13
2022-12-11T09:38:32.825Z,100733.44
2022-12-11T09:41:27.662Z,100736.28
2022-12-11T09:44:09.484Z,100731.06
2022-12-11T09:46:43.703Z,100724.97
2022-12-11T09:49:26.021Z,100717.41
2022-12-11T09:52:07.848Z,100717.59
2022-12-11T09:54:47.110Z,100724.31
2022-12-11T09:57:36.295Z,100729.50
2022-12-11T10:00:22.706Z,100731.22
2022-12-11T10:03:12.243Z,100733.56
2022-12-11T10:05:51.152Z,100735.56
2022-12-11T10:08:31.719Z,100735.72
2022-12-11T10:11:23.797Z,100744.28
2022-12-11T10:14:07.030Z,100729.47
2022-12-11T10:16:46.146Z,100732.31
2022-12-11T10:19:23.076Z,100728.06
2022-12-11T10:21:57.731Z,100725.19
2022-12-11T10:27:36.066Z,100716.41
2022-12-11T10:30:18.035Z,100718.88
2022-12-11T10:32:58.627Z,100710.78
2022-12-11T10:35:35.929Z,100713.00
2022-12-11T10:38:15.977Z,100709.41
2022-12-11T10:40:53.691Z,100699.03
2022-12-11T10:43:35.159Z,100698.34
2022-12-11T10:46:17.881Z,100693.63
2022-12-11T10:48:55.399Z,100689.16
2022-12-11T10:51:35.963Z,100687.00
2022-12-11T10:54:28.082Z,100686.28
2022-12-11T10:57:03.325Z,100685.78
2022-12-11T10:59:39.942Z,100685.31
2022-12-11T11:02:22.852Z,100694.56
2022-12-11T11:05:00.307Z,100691.25
2022-12-11T11:07:34.341Z,100690.88
2022-12-11T11:10:17.199Z,100687.22
2022-12-11T11:12:51.624Z,100686.06
2022-12-11T11:15:28.143Z,100685.56
2022-12-11T11:18:10.668Z,100690.50
2022-12-11T11:20:49.022Z,100689.03
2022-12-11T11:23:24.928Z,100695.09
2022-12-11T11:26:00.243Z,100684.88
2022-12-11T11:28:37.853Z,100683.09
2022-12-11T11:31:13.685Z,100677.22
2022-12-11T11:33:56.206Z,100678.72
2022-12-11T11:36:33.600Z,100670.47
2022-12-11T11:39:19.813Z,100667.50
2022-12-11T11:41:59.652Z,100666.28
2022-12-11T11:44:38.022Z,100660.97
2022-12-11T11:47:15.769Z,100654.38
2022-12-11T11:49:56.750Z,100647.88
2022-12-11T11:52:35.561Z,100653.06
2022-12-11T11:55:20.322Z,100648.03
2022-12-11T11:58:02.018Z,100642.34
2022-12-11T12:00:35.754Z,100641.63
2022-12-11T12:03:12.286Z,100644.50
2022-12-11T12:05:53.121Z,100636.84
2022-12-11T12:08:40.530Z,100640.59
2022-12-11T12:11:25.883Z,100642.84
2022-12-11T12:14:28.776Z,100646.63
2022-12-11T12:17:15.193Z,100646.19
2022-12-11T12:19:57.425Z,100646.19
2022-12-11T12:22:48.548Z,100646.94
2022-12-11T12:25:29.686Z,100645.44
2022-12-11T12:28:11.587Z,100652.38
2022-12-11T12:30:57.727Z,100643.19
2022-12-11T12:33:43.560Z,100645.91
2022-12-11T12:36:23.184Z,100644.41
2022-12-11T12:39:02.883Z,100643.03
2022-12-11T12:41:48.236Z,100650.25
2022-12-11T12:44:24.903Z,100654.66
2022-12-11T12:47:01.830Z,100646.25
2022-12-11T12:49:41.140Z,100648.06
2022-12-11T12:52:17.683Z,100654.53
2022-12-11T12:55:16.128Z,100653.44
2022-12-11T12:57:53.589Z,100645.19
2022-12-11T13:00:30.836Z,100647.88
2022-12-11T13:03:15.292Z,100648.78
2022-12-11T13:05:58.833Z,100652.25
2022-12-11T13:08:38.895Z,100646.66
2022-12-11T13:11:14.837Z,100651.19
2022-12-11T13:14:02.005Z,100649.09
2022-12-11T13:16:38.200Z,100641.28
2022-12-11T13:19:19.377Z,100642.19
2022-12-11T13:21:57.758Z,100647.75
2022-12-11T13:24:33.357Z,100648.34
2022-12-11T13:27:11.339Z,100648.22
2022-12-11T13:29:46.160Z,100648.97
2022-12-11T13:32:25.678Z,100649.88
2022-12-11T13:35:01.016Z,100647.47
2022-12-11T13:37:37.870Z,100642.34
2022-12-11T13:40:19.770Z,100650.00
2022-12-11T13:42:56.735Z,100650.75
2022-12-11T13:45:46.976Z,100651.81
2022-12-11T13:48:25.607Z,100652.41
2022-12-11T13:51:00.319Z,100650.47
2022-12-11T13:53:34.431Z,100659.78
2022-12-11T13:56:16.932Z,100658.16
2022-12-11T13:58:50.570Z,100658.44
2022-12-11T14:01:28.601Z,100651.94
2022-12-11T14:04:05.500Z,100650.28
2022-12-11T14:06:40.667Z,100653.16
2022-12-11T14:09:19.846Z,100653.13
2022-12-11T14:11:57.260Z,100648.59
2022-12-11T14:14:41.312Z,100649.66
2022-12-11T14:17:24.965Z,100654.28
2022-12-11T14:20:01.821Z,100658.19
2022-12-11T14:22:35.716Z,100661.19
2022-12-11T14:25:21.706Z,100661.66
2022-12-11T14:27:57.365Z,100661.34
2022-12-11T14:30:34.117Z,100664.50
2022-12-11T14:33:11.743Z,100660.59
2022-12-11T14:35:47.727Z,100667.81
2022-12-11T14:38:27.953Z,100673.13
2022-12-11T14:41:05.534Z,100673.59
2022-12-11T14:43:46.434Z,100672.38
2022-12-11T14:46:37.654Z,100665.31
2022-12-11T14:49:22.754Z,100668.94
2022-12-11T14:51:58.602Z,100668.31
2022-12-11T14:54:36.841Z,100672.88
2022-12-11T14:57:19.214Z,100668.81
2022-12-11T14:59:55.133Z,100672.44
2022-12-11T15:02:32.150Z,100675.13
2022-12-11T15:05:25.170Z,100669.41
2022-12-11T15:08:01.507Z,100673.63
2022-12-11T15:10:38.685Z,100669.25
2022-12-11T15:13:16.601Z,100677.84
2022-12-11T15:15:51.155Z,100674.53
2022-12-11T15:18:26.463Z,100667.91
2022-12-11T15:21:03.941Z,100671.53
2022-12-11T15:23:50.388Z,100669.72
2022-12-11T15:26:35.385Z,100673.94
2022-12-11T15:29:34.022Z,100668.66
2022-12-11T15:32:19.705Z,100669.41
2022-12-11T15:34:55.011Z,100674.53
2022-12-11T15:37:31.842Z,100674.97
2022-12-11T15:40:07.872Z,100668.50
2022-12-11T15:42:43.366Z,100670.63
2022-12-11T15:45:19.080Z,100675.28
2022-12-11T15:47:53.726Z,100679.34
2022-12-11T15:50:29.153Z,100670.78
2022-12-11T15:53:04.442Z,100669.56
2022-12-11T15:55:40.109Z,100666.38
2022-12-11T15:58:16.819Z,100669.38
2022-12-11T16:00:51.393Z,100662.91
2022-12-11T16:03:25.858Z,100664.56
2022-12-11T16:05:59.585Z,100663.66
2022-12-11T16:08:34.436Z,100664.41
2022-12-11T16:11:08.095Z,100656.59
2022-12-11T16:13:41.572Z,100656.28
2022-12-11T16:16:15.272Z,100659.13
2022-12-11T16:18:48.816Z,100659.75
2022-12-11T16:21:22.519Z,100663.94
2022-12-11T16:23:57.453Z,100668.31
2022-12-11T16:26:31.197Z,100659.75
2022-12-11T16:29:04.617Z,100669.53
2022-12-11T16:31:38.340Z,100667.41
2022-12-11T16:34:11.976Z,100670.88
2022-12-11T16:36:45.670Z,100673.59
2022-12-11T16:39:20.672Z,100662.59
2022-12-11T16:41:54.602Z,100660.03
2022-12-11T16:44:28.499Z,100660.94
2022-12-11T16:47:02.121Z,100670.59
2022-12-11T16:49:35.700Z,100662.91
2022-12-11T16:52:09.537Z,100668.94
2022-12-11T16:54:44.445Z,100666.22
2022-12-11T16:57:18.203Z,100666.53
2022-12-11T16:59:51.788Z,100670.72
2022-12-11T17:02:25.571Z,100667.56
2022-12-11T17:04:59.208Z,100670.88
2022-12-11T17:07:33.389Z,100673.59
2022-12-11T17:10:09.607Z,100675.41
2022-12-11T17:12:43.441Z,100666.66
2022-12-11T17:15:17.087Z,100679.59
2022-12-11T17:17:51.053Z,100679.16
2022-12-11T17:20:24.901Z,100677.66
2022-12-11T17:22:58.724Z,100674.53
2022-12-11T17:25:33.665Z,100680.56
2022-12-11T17:28:07.299Z,100685.22
2022-12-11T17:30:41.908Z,100684.16
2022-12-11T17:33:15.758Z,100680.38
2022-12-11T17:35:49.739Z,100683.72
2022-12-11T17:38:23.542Z,100687.47
2022-12-11T17:40:58.399Z,100685.22
2022-12-11T17:43:32.097Z,100675.44
2022-12-11T17:46:06.615Z,100675.59
2022-12-11T17:48:41.017Z,100668.81
2022-12-11T17:51:20.955Z,100660.97
2022-12-11T17:53:56.339Z,100655.97
2022-12-11T17:56:33.868Z,100662.91
2022-12-11T17:59:07.954Z,100662.16
2022-12-11T18:01:41.547Z,100658.78
2022-12-11T18:04:15.384Z,100666.78
2022-12-11T18:06:48.926Z,100661.34
2022-12-11T18:09:22.711Z,100672.63
2022-12-11T18:11:57.733Z,100666.16
2022-12-11T18:14:31.467Z,100665.25
2022-12-11T18:17:05.064Z,100669.63
2022-12-11T18:19:44.389Z,100669.38
2022-12-11T18:22:19.506Z,100668.91
2022-12-11T18:24:54.638Z,100681.72
2022-12-11T18:27:29.625Z,100680.81
2022-12-11T18:30:03.795Z,100677.94
2022-12-11T18:32:37.326Z,100683.97
2022-12-11T18:35:12.628Z,100680.50
2022-12-11T18:37:46.465Z,100686.69
2022-12-11T18:40:20.380Z,100686.38
2022-12-11T18:42:55.208Z,100679.91
2022-12-11T18:45:29.010Z,100683.97
2022-12-11T18:48:02.671Z,100680.66
2022-12-11T18:50:36.921Z,100680.50
2022-12-11T18:53:10.526Z,100686.06
2022-12-11T18:55:44.960Z,100675.34
2022-12-11T18:58:20.497Z,100686.16
2022-12-11T19:00:54.200Z,100675.94
2022-12-11T19:03:29.452Z,100680.16
2022-12-11T19:06:13.912Z,100685.41
2022-12-11T19:08:48.068Z,100687.81
2022-12-11T19:11:24.540Z,100690.28
2022-12-11T19:13:59.750Z,100693.16
2022-12-11T19:16:35.533Z,100692.09
2022-12-11T19:19:12.161Z,100689.53
2022-12-11T19:21:46.313Z,100693.38
2022-12-11T19:24:23.154Z,100699.56
2022-12-11T19:26:56.923Z,100703.00
2022-12-11T19:29:33.344Z,100705.28
2022-12-11T19:32:07.094Z,100704.88
2022-12-11T19:34:41.251Z,100709.53
2022-12-11T19:37:14.972Z,100709.84
2022-12-11T19:39:48.534Z,100699.94
2022-12-11T19:42:22.312Z,100702.47
2022-12-11T19:44:57.133Z,100707.59
2022-12-11T19:47:30.782Z,100702.94
2022-12-11T19:50:04.493Z,100699.03
2022-12-11T19:52:42.878Z,100691.19
2022-12-11T19:55:21.487Z,100689.84
2022-12-11T19:57:55.150Z,100697.94
2022-12-11T20:00:30.052Z,100688.03
2022-12-11T20:03:03.747Z,100689.38
2022-12-11T20:05:37.387Z,100697.06
2022-12-11T20:11:05.826Z,100693.28
2022-12-11T20:13:40.522Z,100682.75
2022-12-11T20:16:16.567Z,100687.56
2022-12-11T20:18:50.515Z,100680.97
2022-12-11T20:21:24.623Z,100688.03
2022-12-11T20:23:58.456Z,100685.16
2022-12-11T20:26:32.620Z,100696.16
2022-12-11T20:29:08.176Z,100692.34
2022-12-11T20:31:44.149Z,100694.75
2022-12-11T20:34:18.140Z,100696.41
2022-12-11T20:36:53.189Z,100702.41
2022-12-11T20:39:27.007Z,100707.22
2022-12-11T20:42:04.631Z,100706.47
2022-12-11T20:44:40.730Z,100704.38
2022-12-11T20:47:20.586Z,100707.69
2022-12-11T20:49:55.043Z,100706.31
2022-12-11T20:52:29.107Z,100709.03
2022-12-11T20:55:02.877Z,100717.47
2022-12-11T20:57:40.563Z,100701.38
2022-12-11T21:00:18.251Z,100700.16
2022-12-11T21:02:53.193Z,100697.31
2022-12-11T21:05:26.873Z,100701.66
2022-12-11T21:08:00.514Z,100701.06
2022-12-11T21:10:34.745Z,100696.56
2022-12-11T21:13:08.538Z,100700.31
2022-12-11T21:15:42.314Z,100700.16
2022-12-11T21:18:17.167Z,100704.22
2022-12-11T21:20:51.085Z,100701.50
2022-12-11T21:23:24.606Z,100704.38
2022-12-11T21:25:58.328Z,100697.16
2022-12-11T21:28:35.431Z,100706.19
2022-12-11T21:31:12.793Z,100701.81
2022-12-11T21:33:48.266Z,100700.00
2022-12-11T21:36:22.099Z,100704.38
2022-12-11T21:38:55.596Z,100700.50
2022-12-11T21:41:29.745Z,100701.06
2022-12-11T21:46:57.254Z,100707.84
2022-12-11T21:49:32.174Z,100699.25
2022-12-11T21:52:06.927Z,100703.63
2022-12-11T21:54:41.342Z,100708.34
2022-12-11T21:57:15.115Z,100706.19
2022-12-11T21:59:48.651Z,100709.25
2022-12-11T22:02:22.641Z,100709.69
2022-12-11T22:05:00.764Z,100714.22
2022-12-11T22:07:34.482Z,100703.97
2022-12-11T22:10:09.074Z,100705.50
2022-12-11T22:12:42.788Z,100706.69
2022-12-11T22:15:16.337Z,100708.34
2022-12-11T22:17:50.219Z,100710.63
2022-12-11T22:20:25.093Z,100714.06
2022-12-11T22:22:58.873Z,100709.09
2022-12-11T22:25:32.422Z,100708.97
2022-12-11T22:28:06.189Z,100715.44
2022-12-11T22:30:40.018Z,100717.81
2022-12-11T22:33:14.204Z,100718.06
2022-12-11T22:35:56.466Z,100713.31
2022-12-11T22:38:30.115Z,100715.56
2022-12-11T22:41:09.790Z,100709.41
2022-12-11T22:43:43.679Z,100712.53
2022-12-11T22:46:17.664Z,100704.13
2022-12-11T22:48:51.700Z,100700.06
2022-12-11T22:51:26.756Z,100701.72
2022-12-11T22:54:00.531Z,100711.50
2022-12-11T22:56:34.114Z,100693.00
2022-12-11T22:59:07.909Z,100692.56
2022-12-11T23:01:41.624Z,100695.25
2022-12-11T23:04:15.380Z,100698.72
2022-12-11T23:06:50.283Z,100697.97
2022-12-11T23:09:24.337Z,100696.31
2022-12-11T23:11:58.847Z,100698.13
2022-12-11T23:14:32.729Z,100696.31
2022-12-11T23:17:06.348Z,100692.09
2022-12-11T23:19:40.126Z,100697.81
2022-12-11T23:22:15.297Z,100702.31
2022-12-11T23:24:48.961Z,100708.94
2022-12-11T23:27:22.464Z,100708.94
2022-12-11T23:29:56.150Z,100707.00
2022-12-11T23:32:29.731Z,100709.69
2022-12-11T23:35:03.416Z,100700.31
2022-12-11T23:37:38.329Z,100710.16
2022-12-11T23:40:14.108Z,100707.28
2022-12-11T23:42:47.531Z,100708.75
2022-12-11T23:45:21.687Z,100705.63
2022-12-11T23:47:55.383Z,100717.00
2022-12-11T23:50:31.130Z,100715.97
2022-12-11T23:53:06.171Z,100721.22
2022-12-11T23:55:41.191Z,100715.97
2022-12-11T23:58:15.215Z,100719.72
